Time;durP1;ratioP1;P1;durP2;ratioP2;P2;SDS_P1;SDS_P2;PMS_P1;PMS_P2;Temp;Humidity;BMP_temperature;BMP_pressure;BME280_temperature;BME280_humidity;BME280_pressure;Samples;Min_cycle;Max_cycle;Signal;HPM_P1;HPM_P2
2022/09/10 00:01:51;;;;;;;6.87;2.20;;;;;;;;;;4995620;28;20278;-69
2022/09/10 00:04:17;;;;;;;2.80;1.70;;;;;;;;;;5013245;28;20179;-69
2022/09/10 00:06:43;;;;;;;8.23;2.10;;;;;;;;;;4995497;28;20203;-69
2022/09/10 00:09:11;;;;;;;4.50;2.20;;;;;;;;;;5013101;28;20632;-69
2022/09/10 00:11:39;;;;;;;5.90;2.40;;;;;;;;;;4995591;28;20706;-68
2022/09/10 00:14:07;;;;;;;4.33;1.90;;;;;;;;;;4995553;28;20187;-68
2022/09/10 00:16:33;;;;;;;3.97;2.23;;;;;;;;;;5012834;28;20223;-68
2022/09/10 00:19:02;;;;;;;4.90;1.80;;;;;;;;;;5013056;28;20168;-68
2022/09/10 00:21:28;;;;;;;2.50;1.50;;;;;;;;;;4995419;28;20180;-68
2022/09/10 00:23:55;;;;;;;5.63;2.00;;;;;;;;;;5014179;28;20183;-68
2022/09/10 00:26:25;;;;;;;2.77;1.77;;;;;;;;;;5016729;28;20234;-67
2022/09/10 00:28:52;;;;;;;6.53;1.97;;;;;;;;;;4999115;28;20256;-67
2022/09/10 00:31:18;;;;;;;4.97;2.50;;;;;;;;;;5016751;28;20208;-68
2022/09/10 00:33:44;;;;;;;5.63;2.00;;;;;;;;;;4998996;28;20562;-67
2022/09/10 00:36:14;;;;;;;4.50;2.33;;;;;;;;;;4998904;28;20253;-67
2022/09/10 00:38:40;;;;;;;5.87;1.97;;;;;;;;;;5016750;28;20180;-68
2022/09/10 00:41:07;;;;;;;5.07;2.17;;;;;;;;;;4998965;28;20569;-68
2022/09/10 00:43:49;;;;;;;5.00;2.10;;;;;;;;;;5017187;28;20176;-69
2022/09/10 00:46:33;;;;;;;3.17;1.97;;;;;;;;;;5016423;28;20194;-68
2022/09/10 00:49:01;;;;;;;5.90;2.53;;;;;;;;;;5016448;28;20183;-68
2022/09/10 00:51:29;;;;;;;5.33;2.33;;;;;;;;;;4998751;28;20191;-68
2022/09/10 00:53:55;;;;;;;5.13;2.03;;;;;;;;;;5016352;28;20182;-69
2022/09/10 00:56:21;;;;;;;3.77;2.03;;;;;;;;;;4998552;28;20219;-68
2022/09/10 00:58:48;;;;;;;5.40;2.13;;;;;;;;;;4998678;28;20318;-68
2022/09/10 01:01:14;;;;;;;3.83;2.00;;;;;;;;;;5016170;28;20229;-68
2022/09/10 01:03:41;;;;;;;4.33;2.10;;;;;;;;;;5016070;28;20312;-68
2022/09/10 01:06:07;;;;;;;6.33;1.90;;;;;;;;;;4998456;28;20557;-68
2022/09/10 01:08:33;;;;;;;5.93;2.20;;;;;;;;;;4998488;28;20183;-68
2022/09/10 01:11:00;;;;;;;4.20;1.93;;;;;;;;;;5015951;28;20191;-68
2022/09/10 01:13:35;;;;;;;5.13;2.00;;;;;;;;;;5016461;28;20665;-68
2022/09/10 01:16:13;;;;;;;2.90;2.03;;;;;;;;;;5015660;28;20211;-68
2022/09/10 01:18:43;;;;;;;3.80;2.10;;;;;;;;;;5025037;23;20215;-67
2022/09/10 01:21:13;;;;;;;6.07;1.93;;;;;;;;;;4996737;28;20634;-67
2022/09/10 01:23:41;;;;;;;6.10;2.17;;;;;;;;;;4996269;28;20672;-67
2022/09/10 01:26:26;;;;;;;4.37;2.03;;;;;;;;;;4996335;28;20267;-68
2022/09/10 01:29:01;;;;;;;5.67;2.37;;;;;;;;;;4978844;28;20275;-67
2022/09/10 01:31:27;;;;;;;7.47;2.73;;;;;;;;;;4996446;28;20251;-68
2022/09/10 01:34:01;;;;;;;5.30;2.43;;;;;;;;;;4978704;28;20210;-68
2022/09/10 01:36:29;;;;;;;4.80;2.33;;;;;;;;;;4995618;28;20593;-67
2022/09/10 01:38:56;;;;;;;6.97;2.90;;;;;;;;;;4978886;28;20666;-67
2022/09/10 01:41:26;;;;;;;6.33;2.63;;;;;;;;;;4996609;28;20179;-67
2022/09/10 01:43:52;;;;;;;7.13;2.80;;;;;;;;;;4978518;28;20216;-67
2022/09/10 01:46:27;;;;;;;7.77;2.63;;;;;;;;;;4978537;28;20220;-67
2022/09/10 01:49:05;;;;;;;5.67;2.70;;;;;;;;;;4978868;28;20290;-68
2022/09/10 01:51:35;;;;;;;7.10;2.67;;;;;;;;;;4996333;28;20756;-67
2022/09/10 01:54:01;;;;;;;5.23;2.40;;;;;;;;;;4996668;28;20703;-68
2022/09/10 01:56:46;;;;;;;6.07;2.57;;;;;;;;;;4978652;28;20239;-67
2022/09/10 01:59:17;;;;;;;6.07;2.50;;;;;;;;;;4996646;28;20343;-68
2022/09/10 02:01:52;;;;;;;3.63;2.53;;;;;;;;;;4979047;28;20669;-68
2022/09/10 02:04:19;;;;;;;4.53;2.53;;;;;;;;;;4978158;28;20560;-67
2022/09/10 02:06:47;;;;;;;4.33;2.83;;;;;;;;;;4995954;28;20180;-68
2022/09/10 02:09:14;;;;;;;6.53;2.97;;;;;;;;;;4996278;28;20696;-67
2022/09/10 02:11:48;;;;;;;6.53;2.37;;;;;;;;;;4978255;28;20238;-67
2022/09/10 02:14:15;;;;;;;6.23;2.70;;;;;;;;;;4995272;28;20267;-67
2022/09/10 02:16:44;;;;;;;3.53;2.30;;;;;;;;;;4978071;28;20215;-67
2022/09/10 02:19:10;;;;;;;4.33;2.10;;;;;;;;;;4995346;28;20216;-68
2022/09/10 02:21:37;;;;;;;5.70;2.77;;;;;;;;;;4978080;28;20180;-67
2022/09/10 02:24:07;;;;;;;6.93;2.73;;;;;;;;;;4995230;28;20235;-67
2022/09/10 02:26:33;;;;;;;6.63;2.60;;;;;;;;;;4995449;28;20215;-67
2022/09/10 02:29:02;;;;;;;5.37;2.60;;;;;;;;;;4977620;28;20296;-67
2022/09/10 02:31:28;;;;;;;7.43;2.43;;;;;;;;;;4995225;28;20712;-66
2022/09/10 02:33:54;;;;;;;5.40;2.43;;;;;;;;;;4995128;28;20219;-67
2022/09/10 02:36:24;;;;;;;4.47;2.43;;;;;;;;;;4977676;28;20295;-67
2022/09/10 02:38:50;;;;;;;4.03;2.47;;;;;;;;;;4977764;28;20200;-67
2022/09/10 02:41:16;;;;;;;3.00;2.40;;;;;;;;;;4995509;28;20176;-68
2022/09/10 02:43:44;;;;;;;9.37;3.33;;;;;;;;;;4994850;28;20528;-67
2022/09/10 02:46:11;;;;;;;8.93;2.63;;;;;;;;;;4977804;28;20184;-67
2022/09/10 02:48:38;;;;;;;4.90;2.70;;;;;;;;;;4977298;28;20549;-66
2022/09/10 02:51:04;;;;;;;8.03;3.20;;;;;;;;;;4977645;28;20188;-67
2022/09/10 02:53:30;;;;;;;5.63;2.90;;;;;;;;;;4977393;28;20242;-67
2022/09/10 02:55:57;;;;;;;5.43;2.57;;;;;;;;;;4995737;28;20213;-67
2022/09/10 02:58:23;;;;;;;6.50;2.70;;;;;;;;;;4994837;28;20196;-67
2022/09/10 03:00:49;;;;;;;5.70;3.17;;;;;;;;;;4977250;28;20558;-67
2022/09/10 03:03:16;;;;;;;7.97;4.17;;;;;;;;;;4994623;28;20180;-67
2022/09/10 03:05:42;;;;;;;6.27;3.10;;;;;;;;;;4977168;28;20216;-67
2022/09/10 03:08:09;;;;;;;9.70;3.27;;;;;;;;;;4976934;28;20184;-67
2022/09/10 03:10:36;;;;;;;7.83;3.50;;;;;;;;;;4977491;28;20185;-67
2022/09/10 03:13:02;;;;;;;8.20;3.50;;;;;;;;;;4977203;28;20192;-68
2022/09/10 03:15:28;;;;;;;6.63;4.00;;;;;;;;;;4994569;28;20212;-68
2022/09/10 03:17:54;;;;;;;8.67;3.80;;;;;;;;;;4994840;28;20177;-68
2022/09/10 03:20:21;;;;;;;6.53;3.70;;;;;;;;;;4976944;28;20270;-68
2022/09/10 03:22:48;;;;;;;13.77;4.10;;;;;;;;;;4994554;28;20697;-66
2022/09/10 03:25:14;;;;;;;7.10;3.67;;;;;;;;;;4976960;28;20234;-68
2022/09/10 03:27:40;;;;;;;8.27;3.87;;;;;;;;;;4994082;28;20636;-68
2022/09/10 03:30:06;;;;;;;8.83;3.80;;;;;;;;;;4994156;28;20204;-68
2022/09/10 03:32:32;;;;;;;8.63;4.00;;;;;;;;;;4994385;28;20176;-68
2022/09/10 03:34:58;;;;;;;12.70;4.43;;;;;;;;;;4977234;28;20672;-70
2022/09/10 03:37:24;;;;;;;11.03;4.20;;;;;;;;;;4994340;28;20196;-68
2022/09/10 03:39:50;;;;;;;7.73;4.27;;;;;;;;;;4994219;28;20611;-68
2022/09/10 03:42:16;;;;;;;9.73;5.13;;;;;;;;;;4977146;28;20587;-67
2022/09/10 03:44:42;;;;;;;8.57;4.40;;;;;;;;;;4976606;28;20192;-68
2022/09/10 03:47:10;;;;;;;6.87;4.33;;;;;;;;;;4994179;28;20180;-68
2022/09/10 03:49:36;;;;;;;8.37;4.30;;;;;;;;;;4994312;28;20192;-68
2022/09/10 03:52:02;;;;;;;9.40;4.43;;;;;;;;;;4976697;28;20653;-69
2022/09/10 03:54:28;;;;;;;9.17;4.73;;;;;;;;;;4994034;28;20180;-68
2022/09/10 03:56:54;;;;;;;7.53;4.20;;;;;;;;;;4993958;28;20278;-68
2022/09/10 03:59:20;;;;;;;9.50;4.80;;;;;;;;;;4995717;28;20235;-68
2022/09/10 04:01:46;;;;;;;6.80;4.53;;;;;;;;;;4998209;28;20176;-68
2022/09/10 04:04:13;;;;;;;10.53;5.30;;;;;;;;;;4980695;28;20184;-69
2022/09/10 04:06:40;;;;;;;9.03;4.47;;;;;;;;;;4980531;28;20279;-67
2022/09/10 04:09:06;;;;;;;10.57;4.90;;;;;;;;;;4997834;28;20243;-68
2022/09/10 04:11:32;;;;;;;11.30;4.60;;;;;;;;;;4998042;28;20184;-68
2022/09/10 04:13:58;;;;;;;11.40;5.30;;;;;;;;;;4980090;28;20184;-68
2022/09/10 04:16:24;;;;;;;11.67;5.20;;;;;;;;;;4997669;28;20208;-67
2022/09/10 04:18:50;;;;;;;10.43;5.20;;;;;;;;;;4997704;28;20223;-68
2022/09/10 04:21:16;;;;;;;9.00;5.13;;;;;;;;;;4997805;28;20173;-68
2022/09/10 04:23:42;;;;;;;11.03;4.67;;;;;;;;;;4998256;28;20180;-68
2022/09/10 04:26:10;;;;;;;7.77;4.33;;;;;;;;;;4997622;28;20677;-68
2022/09/10 04:28:37;;;;;;;11.63;5.03;;;;;;;;;;4979956;28;20207;-67
2022/09/10 04:31:03;;;;;;;11.03;5.67;;;;;;;;;;4997831;28;20180;-69
2022/09/10 04:33:29;;;;;;;7.97;4.77;;;;;;;;;;4980316;28;20185;-68
2022/09/10 04:35:59;;;;;;;8.17;5.10;;;;;;;;;;4997656;28;20196;-68
2022/09/10 04:38:25;;;;;;;11.27;6.13;;;;;;;;;;4997334;28;20196;-68
2022/09/10 04:40:51;;;;;;;11.93;5.57;;;;;;;;;;4979869;28;20230;-68
2022/09/10 04:43:17;;;;;;;12.27;6.33;;;;;;;;;;4998300;28;20637;-68
2022/09/10 04:45:43;;;;;;;10.50;6.73;;;;;;;;;;4979877;28;20200;-68
2022/09/10 04:48:10;;;;;;;13.33;6.43;;;;;;;;;;4997728;28;20625;-67
2022/09/10 04:50:38;;;;;;;11.93;7.40;;;;;;;;;;4981222;28;20188;-67
2022/09/10 04:53:06;;;;;;;16.90;7.70;;;;;;;;;;4997638;28;20651;-65
2022/09/10 04:55:32;;;;;;;14.87;7.83;;;;;;;;;;4998532;28;20259;-64
2022/09/10 04:57:58;;;;;;;16.17;8.00;;;;;;;;;;4980829;28;20180;-67
2022/09/10 05:00:25;;;;;;;12.20;7.40;;;;;;;;;;4997820;28;20258;-67
2022/09/10 05:02:51;;;;;;;15.60;7.90;;;;;;;;;;4979837;28;20192;-67
2022/09/10 05:05:17;;;;;;;12.10;7.80;;;;;;;;;;4980221;28;20235;-67
2022/09/10 05:07:43;;;;;;;13.63;8.50;;;;;;;;;;4997586;28;20181;-63
2022/09/10 05:10:09;;;;;;;14.33;9.13;;;;;;;;;;4996173;28;20226;-65
2022/09/10 05:12:37;;;;;;;13.67;8.13;;;;;;;;;;4979794;28;20247;-65
2022/09/10 05:15:03;;;;;;;16.83;9.17;;;;;;;;;;4996914;28;20550;-65
2022/09/10 05:17:29;;;;;;;19.43;8.80;;;;;;;;;;4979443;28;20208;-65
2022/09/10 05:19:55;;;;;;;12.90;8.37;;;;;;;;;;4996899;28;20617;-65
2022/09/10 05:22:21;;;;;;;13.20;8.27;;;;;;;;;;4996906;28;20180;-67
2022/09/10 05:24:47;;;;;;;15.27;7.87;;;;;;;;;;4996814;28;20556;-67
2022/09/10 05:27:13;;;;;;;17.73;9.23;;;;;;;;;;4996899;28;20271;-65
2022/09/10 05:29:39;;;;;;;13.97;9.20;;;;;;;;;;4996836;28;20632;-67
2022/09/10 05:32:05;;;;;;;15.67;9.07;;;;;;;;;;4997221;28;20176;-68
2022/09/10 05:34:31;;;;;;;14.30;9.10;;;;;;;;;;4997301;28;20219;-65
2022/09/10 05:36:56;;;;;;;15.77;8.70;;;;;;;;;;4996956;28;20236;-66
2022/09/10 05:39:22;;;;;;;11.43;8.33;;;;;;;;;;4979633;28;20234;-66
2022/09/10 05:41:48;;;;;;;17.70;9.00;;;;;;;;;;4997394;28;20246;-66
2022/09/10 05:44:16;;;;;;;15.70;8.90;;;;;;;;;;4997027;28;20246;-66
2022/09/10 05:46:42;;;;;;;17.27;9.80;;;;;;;;;;4979612;28;20191;-66
2022/09/10 05:49:09;;;;;;;17.53;9.50;;;;;;;;;;4996921;28;20279;-66
2022/09/10 05:51:35;;;;;;;19.33;9.37;;;;;;;;;;4997266;28;20187;-66
2022/09/10 05:54:01;;;;;;;14.60;8.90;;;;;;;;;;4996776;28;20220;-67
2022/09/10 05:56:27;;;;;;;17.80;9.53;;;;;;;;;;4996782;28;20363;-66
2022/09/10 05:58:53;;;;;;;18.77;10.03;;;;;;;;;;4979091;28;20246;-67
2022/09/10 06:01:19;;;;;;;16.00;9.93;;;;;;;;;;4979292;28;20192;-67
2022/09/10 06:03:45;;;;;;;19.57;9.43;;;;;;;;;;4996236;28;20637;-66
2022/09/10 06:06:11;;;;;;;18.30;10.00;;;;;;;;;;4995782;28;20192;-68
2022/09/10 06:08:38;;;;;;;16.43;9.93;;;;;;;;;;4995526;28;20236;-65
2022/09/10 06:11:05;;;;;;;17.00;10.57;;;;;;;;;;4995800;28;20207;-67
2022/09/10 06:13:31;;;;;;;15.87;9.97;;;;;;;;;;4978402;28;20185;-66
2022/09/10 06:15:58;;;;;;;20.63;10.90;;;;;;;;;;4995906;28;20691;-67
2022/09/10 06:18:24;;;;;;;21.37;11.13;;;;;;;;;;4977928;28;20219;-67
2022/09/10 06:20:51;;;;;;;21.10;11.33;;;;;;;;;;4995418;28;20181;-67
2022/09/10 06:23:17;;;;;;;18.43;11.07;;;;;;;;;;4977428;28;20188;-67
2022/09/10 06:25:43;;;;;;;19.27;11.13;;;;;;;;;;4977879;28;20318;-67
2022/09/10 06:28:11;;;;;;;22.03;10.90;;;;;;;;;;4995222;28;20243;-67
2022/09/10 06:30:38;;;;;;;15.87;10.67;;;;;;;;;;4995459;28;20173;-67
2022/09/10 06:33:04;;;;;;;17.50;11.07;;;;;;;;;;4995169;28;20192;-67
2022/09/10 06:35:31;;;;;;;19.00;11.37;;;;;;;;;;4995409;28;20173;-67
2022/09/10 06:37:57;;;;;;;21.60;11.90;;;;;;;;;;4995178;28;20204;-67
2022/09/10 06:40:26;;;;;;;16.00;10.57;;;;;;;;;;4977596;28;20199;-67
2022/09/10 06:42:52;;;;;;;17.00;11.10;;;;;;;;;;4995250;28;20172;-67
2022/09/10 06:45:18;;;;;;;20.90;9.83;;;;;;;;;;4977475;28;20556;-67
2022/09/10 06:47:44;;;;;;;21.07;10.27;;;;;;;;;;4995135;28;20692;-67
2022/09/10 06:50:10;;;;;;;17.10;9.77;;;;;;;;;;4995370;28;20196;-67
2022/09/10 06:52:38;;;;;;;19.77;10.20;;;;;;;;;;4977748;28;20180;-67
2022/09/10 06:55:04;;;;;;;17.43;9.03;;;;;;;;;;4994867;28;20183;-66
2022/09/10 06:57:30;;;;;;;16.37;9.43;;;;;;;;;;4977536;28;20673;-67
2022/09/10 06:59:57;;;;;;;16.53;9.63;;;;;;;;;;4977052;28;20294;-67
2022/09/10 07:02:24;;;;;;;20.87;10.43;;;;;;;;;;4994566;28;20185;-67
2022/09/10 07:04:50;;;;;;;12.17;9.20;;;;;;;;;;4977106;28;20627;-66
2022/09/10 07:07:16;;;;;;;17.97;10.20;;;;;;;;;;4994684;28;20180;-67
2022/09/10 07:09:42;;;;;;;17.07;11.30;;;;;;;;;;4977230;28;20563;-66
2022/09/10 07:12:08;;;;;;;20.67;10.50;;;;;;;;;;4994510;28;20188;-67
2022/09/10 07:14:34;;;;;;;17.00;8.77;;;;;;;;;;4994653;28;20258;-67
2022/09/10 07:17:01;;;;;;;15.93;10.20;;;;;;;;;;4994578;28;20204;-67
2022/09/10 07:19:28;;;;;;;14.07;9.00;;;;;;;;;;5002561;23;20631;-67
2022/09/10 07:21:54;;;;;;;13.83;9.73;;;;;;;;;;5014652;28;20307;-66
2022/09/10 07:24:20;;;;;;;18.23;10.40;;;;;;;;;;5013096;28;20225;-67
2022/09/10 07:26:46;;;;;;;15.17;9.40;;;;;;;;;;5012801;28;20186;-67
2022/09/10 07:29:12;;;;;;;15.90;10.50;;;;;;;;;;5012975;28;20640;-67
2022/09/10 07:31:40;;;;;;;13.73;10.03;;;;;;;;;;5012826;28;20211;-67
2022/09/10 07:34:07;;;;;;;23.77;11.43;;;;;;;;;;5013145;28;20644;-67
2022/09/10 07:36:33;;;;;;;14.87;10.17;;;;;;;;;;5014004;28;20283;-67
2022/09/10 07:39:03;;;;;;;16.20;10.50;;;;;;;;;;5014276;28;20686;-66
2022/09/10 07:41:30;;;;;;;19.20;11.40;;;;;;;;;;5012674;28;20211;-67
2022/09/10 07:43:57;;;;;;;17.00;11.33;;;;;;;;;;5012500;28;20648;-67
2022/09/10 07:46:24;;;;;;;21.37;11.20;;;;;;;;;;5012638;28;20183;-67
2022/09/10 07:48:57;;;;;;;18.63;12.07;;;;;;;;;;5014311;28;20286;-67
2022/09/10 07:51:23;;;;;;;17.10;11.00;;;;;;;;;;5012585;28;20575;-67
2022/09/10 07:53:56;;;;;;;19.33;11.43;;;;;;;;;;5014020;28;20188;-68
2022/09/10 07:56:22;;;;;;;18.17;10.57;;;;;;;;;;5012952;28;20290;-67
2022/09/10 07:58:49;;;;;;;19.90;11.33;;;;;;;;;;5014097;28;20207;-67
2022/09/10 08:01:14;;;;;;;18.57;11.00;;;;;;;;;;5013723;28;20223;-68
2022/09/10 08:03:41;;;;;;;23.70;11.10;;;;;;;;;;5012362;28;20211;-68
2022/09/10 08:06:08;;;;;;;21.53;12.80;;;;;;;;;;5013788;28;20176;-68
2022/09/10 08:08:35;;;;;;;19.43;11.70;;;;;;;;;;5013990;28;20207;-68
2022/09/10 08:11:08;;;;;;;17.93;11.87;;;;;;;;;;5014256;28;20207;-66
2022/09/10 08:13:34;;;;;;;18.83;10.77;;;;;;;;;;5013844;28;20199;-68
2022/09/10 08:16:00;;;;;;;21.23;11.10;;;;;;;;;;5013890;28;20214;-67
2022/09/10 08:18:28;;;;;;;15.77;10.67;;;;;;;;;;5013993;28;20180;-67
2022/09/10 08:20:54;;;;;;;26.10;11.57;;;;;;;;;;5013537;28;20266;-68
2022/09/10 08:23:21;;;;;;;20.13;11.70;;;;;;;;;;5014157;28;20180;-68
2022/09/10 08:25:50;;;;;;;19.00;11.07;;;;;;;;;;5014463;28;20199;-67
2022/09/10 08:28:20;;;;;;;16.93;11.33;;;;;;;;;;5013956;28;20172;-68
2022/09/10 08:30:56;;;;;;;23.77;12.20;;;;;;;;;;5013320;28;20707;-68
2022/09/10 08:33:23;;;;;;;21.60;12.70;;;;;;;;;;5014244;28;20237;-69
2022/09/10 08:35:53;;;;;;;14.43;11.93;;;;;;;;;;5023711;28;20566;-68
2022/09/10 08:38:19;;;;;;;20.93;12.03;;;;;;;;;;5020874;28;20172;-68
2022/09/10 08:40:45;;;;;;;23.70;12.07;;;;;;;;;;5020127;28;20247;-68
2022/09/10 08:43:12;;;;;;;19.77;12.50;;;;;;;;;;5015531;28;20175;-67
2022/09/10 08:45:38;;;;;;;17.20;12.30;;;;;;;;;;5015448;28;20222;-69
2022/09/10 08:48:08;;;;;;;20.87;12.03;;;;;;;;;;5017413;28;20179;-68
2022/09/10 08:50:44;;;;;;;16.30;11.57;;;;;;;;;;5015559;28;20646;-68
2022/09/10 08:53:24;;;;;;;17.97;11.50;;;;;;;;;;5016881;28;20168;-68
2022/09/10 08:55:55;;;;;;;16.30;11.97;;;;;;;;;;5017056;28;20164;-68
2022/09/10 08:58:24;;;;;;;18.10;11.53;;;;;;;;;;5017030;28;20595;-68
2022/09/10 09:00:55;;;;;;;19.63;13.50;;;;;;;;;;5016690;28;20200;-68
2022/09/10 09:03:31;;;;;;;19.67;13.27;;;;;;;;;;5016941;28;20256;-68
2022/09/10 09:05:58;;;;;;;18.77;12.47;;;;;;;;;;5016635;28;20206;-68
2022/09/10 09:08:26;;;;;;;20.77;12.63;;;;;;;;;;5016813;28;20636;-68
2022/09/10 09:10:51;;;;;;;22.03;13.27;;;;;;;;;;5015366;28;20622;-67
2022/09/10 09:13:21;;;;;;;19.97;12.87;;;;;;;;;;5016624;28;20172;-67
2022/09/10 09:16:10;;;;;;;19.47;12.33;;;;;;;;;;5016806;28;20176;-67
2022/09/10 09:18:55;;;;;;;22.57;14.07;;;;;;;;;;4979303;28;20188;-67
2022/09/10 09:21:30;;;;;;;20.60;13.17;;;;;;;;;;5014900;28;20219;-67
2022/09/10 09:23:57;;;;;;;19.33;13.47;;;;;;;;;;5015532;28;20183;-66
2022/09/10 09:26:26;;;;;;;19.13;13.30;;;;;;;;;;5016151;28;20208;-68
2022/09/10 09:29:04;;;;;;;21.87;13.40;;;;;;;;;;5015090;28;20270;-67
2022/09/10 09:31:32;;;;;;;18.83;12.97;;;;;;;;;;5016032;28;20742;-68
2022/09/10 09:34:04;;;;;;;18.03;13.70;;;;;;;;;;5016140;28;20242;-68
2022/09/10 09:36:33;;;;;;;19.97;14.13;;;;;;;;;;5016114;28;20253;-68
2022/09/10 09:39:01;;;;;;;17.17;14.33;;;;;;;;;;5016867;28;20187;-68
2022/09/10 09:41:30;;;;;;;20.03;15.70;;;;;;;;;;5016354;28;20242;-67
2022/09/10 09:44:11;;;;;;;21.77;15.33;;;;;;;;;;5016000;28;20187;-68
2022/09/10 09:46:37;;;;;;;22.87;14.23;;;;;;;;;;5016165;28;20537;-67
2022/09/10 09:49:03;;;;;;;20.27;14.83;;;;;;;;;;5014519;28;20205;-67
2022/09/10 09:51:34;;;;;;;25.13;15.87;;;;;;;;;;5015579;28;20196;-67
2022/09/10 09:54:03;;;;;;;21.07;15.50;;;;;;;;;;5015754;28;20172;-67
2022/09/10 09:56:31;;;;;;;24.40;15.80;;;;;;;;;;5014595;28;20253;-67
2022/09/10 09:59:06;;;;;;;22.17;16.80;;;;;;;;;;5014643;28;20187;-67
2022/09/10 10:01:33;;;;;;;21.73;17.40;;;;;;;;;;5016231;28;20199;-68
2022/09/10 10:04:04;;;;;;;24.80;16.93;;;;;;;;;;5016065;28;20180;-67
2022/09/10 10:06:31;;;;;;;21.67;17.40;;;;;;;;;;5016359;28;20278;-67
2022/09/10 10:08:59;;;;;;;23.30;17.27;;;;;;;;;;5016146;28;20663;-69
2022/09/10 10:11:38;;;;;;;21.30;16.70;;;;;;;;;;5015061;28;20549;-67
2022/09/10 10:14:21;;;;;;;21.67;18.73;;;;;;;;;;5015433;28;20552;-67
2022/09/10 10:16:48;;;;;;;26.40;19.17;;;;;;;;;;5015325;28;20191;-67
2022/09/10 10:19:27;;;;;;;22.60;18.67;;;;;;;;;;5015598;28;20259;-67
2022/09/10 10:21:58;;;;;;;19.57;17.47;;;;;;;;;;5015339;28;20629;-66
2022/09/10 10:24:31;;;;;;;21.90;18.27;;;;;;;;;;5013999;28;20176;-67
2022/09/10 10:26:58;;;;;;;22.40;18.40;;;;;;;;;;5015316;28;20196;-67
2022/09/10 10:29:24;;;;;;;21.27;17.67;;;;;;;;;;5014862;28;20230;-67
2022/09/10 10:31:50;;;;;;;21.37;17.73;;;;;;;;;;5015050;28;20648;-67
2022/09/10 10:34:36;;;;;;;18.40;16.53;;;;;;;;;;5014771;28;20183;-67
2022/09/10 10:37:02;;;;;;;21.97;16.67;;;;;;;;;;5015114;28;20200;-68
2022/09/10 10:39:36;;;;;;;18.70;16.70;;;;;;;;;;5015182;28;20242;-67
2022/09/10 10:42:03;;;;;;;20.13;16.10;;;;;;;;;;5015609;28;20159;-68
2022/09/10 10:44:34;;;;;;;16.03;14.33;;;;;;;;;;5013696;28;20261;-68
2022/09/10 10:47:03;;;;;;;17.67;14.23;;;;;;;;;;5013829;28;20179;-68
2022/09/10 10:49:52;;;;;;;15.30;13.70;;;;;;;;;;5013538;28;20241;-68
2022/09/10 10:52:18;;;;;;;15.37;13.20;;;;;;;;;;5014808;28;20697;-67
2022/09/10 10:55:03;;;;;;;15.20;13.70;;;;;;;;;;5014662;28;20210;-68
2022/09/10 10:57:47;;;;;;;15.50;12.60;;;;;;;;;;5015126;28;20535;-68
2022/09/10 11:00:18;;;;;;;14.73;13.23;;;;;;;;;;5014645;28;20195;-68
2022/09/10 11:02:51;;;;;;;13.97;12.57;;;;;;;;;;5015031;28;20175;-68
2022/09/10 11:05:20;;;;;;;14.50;12.27;;;;;;;;;;5014376;28;20636;-68
2022/09/10 11:07:46;;;;;;;14.03;12.53;;;;;;;;;;5014399;28;20218;-68
2022/09/10 11:10:15;;;;;;;14.87;11.60;;;;;;;;;;5013027;28;20199;-68
2022/09/10 11:12:45;;;;;;;14.83;12.40;;;;;;;;;;5014454;28;20266;-68
2022/09/10 11:15:14;;;;;;;14.20;12.60;;;;;;;;;;5014258;28;20191;-68
2022/09/10 11:17:45;;;;;;;14.80;13.13;;;;;;;;;;5014682;28;20566;-68
2022/09/10 11:20:23;;;;;;;14.10;12.70;;;;;;;;;;5015657;28;20214;-67
2022/09/10 11:22:55;;;;;;;14.60;13.10;;;;;;;;;;5014241;28;20663;-67
2022/09/10 11:25:25;;;;;;;13.60;12.20;;;;;;;;;;5013663;28;20286;-67
2022/09/10 11:27:53;;;;;;;13.60;12.20;;;;;;;;;;5013600;28;20184;-68
2022/09/10 11:30:20;;;;;;;15.03;13.43;;;;;;;;;;5014262;28;20672;-67
2022/09/10 11:32:52;;;;;;;14.33;12.93;;;;;;;;;;5016093;28;20226;-66
2022/09/10 11:35:21;;;;;;;17.33;13.90;;;;;;;;;;5014548;28;20706;-68
2022/09/10 11:38:06;;;;;;;15.17;12.77;;;;;;;;;;5014000;28;20203;-67
2022/09/10 11:40:59;;;;;;;15.03;12.87;;;;;;;;;;5014190;28;20242;-67
2022/09/10 11:43:29;;;;;;;16.00;14.27;;;;;;;;;;5014347;28;20156;-67
2022/09/10 11:45:57;;;;;;;14.53;13.13;;;;;;;;;;5014590;28;20168;-68
2022/09/10 11:48:27;;;;;;;15.57;13.93;;;;;;;;;;5012817;28;20180;-68
2022/09/10 11:50:58;;;;;;;17.57;15.47;;;;;;;;;;5012835;28;20196;-68
2022/09/10 11:53:24;;;;;;;16.10;13.90;;;;;;;;;;5015150;28;20176;-68
2022/09/10 11:55:50;;;;;;;17.77;13.87;;;;;;;;;;5015605;28;20180;-68
2022/09/10 11:58:19;;;;;;;16.13;14.37;;;;;;;;;;5012293;28;20180;-67
2022/09/10 12:01:04;;;;;;;17.30;15.50;;;;;;;;;;5013765;28;20280;-65
2022/09/10 12:03:56;;;;;;;16.10;14.43;;;;;;;;;;5013824;28;20663;-67
2022/09/10 12:06:35;;;;;;;24.10;18.50;;;;;;;;;;5011506;28;20227;-67
2022/09/10 12:09:04;;;;;;;15.43;13.83;;;;;;;;;;5013619;28;20168;-67
2022/09/10 12:11:36;;;;;;;16.60;14.83;;;;;;;;;;5013714;28;20270;-67
2022/09/10 12:14:14;;;;;;;14.70;13.20;;;;;;;;;;5012295;28;20538;-67
2022/09/10 12:16:52;;;;;;;15.90;13.30;;;;;;;;;;5013671;28;20204;-68
2022/09/10 12:19:30;;;;;;;13.03;11.77;;;;;;;;;;5013673;28;20176;-67
2022/09/10 12:22:00;;;;;;;16.30;12.87;;;;;;;;;;5017681;28;20172;-68
2022/09/10 12:24:35;;;;;;;15.33;12.37;;;;;;;;;;5016063;28;20640;-67
2022/09/10 12:27:01;;;;;;;12.53;11.13;;;;;;;;;;5017436;28;20701;-67
2022/09/10 12:29:29;;;;;;;10.90;9.90;;;;;;;;;;5017328;28;20580;-69
2022/09/10 12:32:22;;;;;;;11.60;10.53;;;;;;;;;;5017177;28;20212;-68
2022/09/10 12:34:48;;;;;;;11.43;10.17;;;;;;;;;;5014931;28;20211;-68
2022/09/10 12:37:33;;;;;;;10.93;9.87;;;;;;;;;;5015695;28;20203;-68
2022/09/10 12:40:18;;;;;;;15.43;12.57;;;;;;;;;;5015775;28;20203;-68
2022/09/10 12:42:44;;;;;;;12.40;10.90;;;;;;;;;;5016714;28;20263;-68
2022/09/10 12:45:10;;;;;;;16.13;11.83;;;;;;;;;;5015535;28;20176;-68
2022/09/10 12:47:41;;;;;;;14.87;10.93;;;;;;;;;;5015392;28;20180;-68
2022/09/10 12:50:17;;;;;;;14.03;12.03;;;;;;;;;;5016521;28;20619;-68
2022/09/10 12:52:52;;;;;;;14.50;12.33;;;;;;;;;;5016663;28;20183;-68
2022/09/10 12:55:21;;;;;;;16.07;12.03;;;;;;;;;;5016513;28;20190;-68
2022/09/10 12:57:58;;;;;;;16.77;12.33;;;;;;;;;;5016474;28;20198;-68
2022/09/10 13:00:31;;;;;;;14.47;12.27;;;;;;;;;;5016990;28;20191;-66
2022/09/10 13:03:10;;;;;;;16.73;14.30;;;;;;;;;;5015655;28;20658;-66
2022/09/10 13:05:46;;;;;;;15.90;14.10;;;;;;;;;;5017317;28;20156;-67
2022/09/10 13:08:15;;;;;;;19.80;15.27;;;;;;;;;;5016654;28;20180;-67
2022/09/10 13:10:43;;;;;;;18.73;16.20;;;;;;;;;;5016416;28;20211;-69
2022/09/10 13:13:21;;;;;;;17.80;15.47;;;;;;;;;;5016322;28;20267;-68
2022/09/10 13:15:50;;;;;;;20.47;18.17;;;;;;;;;;5016782;28;20247;-68
2022/09/10 13:18:24;;;;;;;20.00;17.93;;;;;;;;;;5016750;28;20233;-68
2022/09/10 13:20:50;;;;;;;19.13;17.23;;;;;;;;;;5016116;28;20218;-67
2022/09/10 13:23:17;;;;;;;21.60;18.73;;;;;;;;;;5016181;28;20179;-68
2022/09/10 13:25:44;;;;;;;22.17;19.80;;;;;;;;;;5039161;23;20187;-66
2022/09/10 13:28:29;;;;;;;24.63;20.83;;;;;;;;;;4998051;28;20586;-67
2022/09/10 13:31:17;;;;;;;25.00;22.23;;;;;;;;;;4998043;28;20275;-66
2022/09/10 13:33:50;;;;;;;23.77;19.93;;;;;;;;;;4998833;28;20184;-66
2022/09/10 13:36:15;;;;;;;22.60;19.83;;;;;;;;;;5016215;28;20202;-66
2022/09/10 13:39:00;;;;;;;23.13;20.73;;;;;;;;;;4998180;28;20176;-65
2022/09/10 13:41:45;;;;;;;22.90;20.53;;;;;;;;;;5016804;28;20237;-66
2022/09/10 13:44:29;;;;;;;22.20;19.20;;;;;;;;;;5015724;28;20187;-66
2022/09/10 13:46:56;;;;;;;22.23;19.70;;;;;;;;;;5015529;28;20199;-65
2022/09/10 13:49:30;;;;;;;25.83;18.60;;;;;;;;;;5016135;28;20186;-65
2022/09/10 13:51:58;;;;;;;24.00;19.17;;;;;;;;;;4997800;28;20202;-65
2022/09/10 13:54:30;;;;;;;21.20;19.00;;;;;;;;;;4997649;28;20570;-66
2022/09/10 13:56:58;;;;;;;22.03;18.77;;;;;;;;;;5015116;28;20673;-64
2022/09/10 13:59:30;;;;;;;22.60;19.30;;;;;;;;;;5015188;28;20176;-65
2022/09/10 14:02:00;;;;;;;22.27;19.93;;;;;;;;;;5015737;28;20160;-65
2022/09/10 14:04:27;;;;;;;21.27;19.17;;;;;;;;;;5015057;28;20227;-65
2022/09/10 14:06:56;;;;;;;24.37;20.87;;;;;;;;;;5014954;28;20204;-65
2022/09/10 14:09:22;;;;;;;29.57;20.03;;;;;;;;;;4997408;28;20183;-65
2022/09/10 14:11:48;;;;;;;21.27;18.57;;;;;;;;;;5015050;28;20254;-65
2022/09/10 14:14:16;;;;;;;21.83;19.73;;;;;;;;;;4997549;28;20188;-65
2022/09/10 14:16:44;;;;;;;22.00;19.67;;;;;;;;;;5015063;28;20234;-66
2022/09/10 14:19:33;;;;;;;26.23;20.53;;;;;;;;;;5015080;28;20266;-66
2022/09/10 14:22:00;;;;;;;27.23;20.77;;;;;;;;;;4987061;28;20184;-67
2022/09/10 14:24:32;;;;;;;22.70;19.50;;;;;;;;;;4997105;28;20184;-66
2022/09/10 14:27:05;;;;;;;22.63;20.27;;;;;;;;;;5014574;28;20684;-66
2022/09/10 14:29:31;;;;;;;23.77;21.10;;;;;;;;;;5014592;28;20207;-65
2022/09/10 14:32:15;;;;;;;21.43;18.97;;;;;;;;;;5014543;28;20222;-65
2022/09/10 14:34:41;;;;;;;24.70;22.10;;;;;;;;;;5014852;28;20176;-64
2022/09/10 14:37:25;;;;;;;24.83;20.67;;;;;;;;;;5014424;28;20218;-65
2022/09/10 14:39:51;;;;;;;23.77;21.53;;;;;;;;;;4996707;28;20234;-65